sensor_id;sensor_type;location;lat;lon;timestamp;P1;durP1;ratioP1;P2;durP2;ratioP2
71513;SDS011;59335;46.652;21.272;2024-02-15T00:01:42;21.00;;;11.88;;
71513;SDS011;59335;46.652;21.272;2024-02-15T00:04:45;21.70;;;11.57;;
71513;SDS011;59335;46.652;21.272;2024-02-15T00:07:48;22.80;;;12.18;;
71513;SDS011;59335;46.652;21.272;2024-02-15T00:10:51;24.40;;;11.93;;
71513;SDS011;59335;46.652;21.272;2024-02-15T00:13:54;23.73;;;12.77;;
71513;SDS011;59335;46.652;21.272;2024-02-15T00:16:59;25.30;;;11.38;;
71513;SDS011;59335;46.652;21.272;2024-02-15T00:20:03;21.17;;;11.35;;
71513;SDS011;59335;46.652;21.272;2024-02-15T00:23:12;22.08;;;11.90;;
71513;SDS011;59335;46.652;21.272;2024-02-15T00:26:15;23.40;;;12.40;;
71513;SDS011;59335;46.652;21.272;2024-02-15T00:29:18;21.53;;;11.23;;
71513;SDS011;59335;46.652;21.272;2024-02-15T00:32:21;21.83;;;11.95;;
71513;SDS011;59335;46.652;21.272;2024-02-15T00:35:24;22.27;;;12.23;;
71513;SDS011;59335;46.652;21.272;2024-02-15T00:38:29;24.08;;;12.55;;
71513;SDS011;59335;46.652;21.272;2024-02-15T00:41:34;23.77;;;12.77;;
71513;SDS011;59335;46.652;21.272;2024-02-15T00:44:37;22.43;;;12.33;;
71513;SDS011;59335;46.652;21.272;2024-02-15T00:47:42;22.85;;;12.88;;
71513;SDS011;59335;46.652;21.272;2024-02-15T00:50:45;20.33;;;11.55;;
71513;SDS011;59335;46.652;21.272;2024-02-15T00:53:48;21.52;;;12.57;;
71513;SDS011;59335;46.652;21.272;2024-02-15T00:56:51;24.80;;;11.85;;
71513;SDS011;59335;46.652;21.272;2024-02-15T00:59:54;21.47;;;11.73;;
71513;SDS011;59335;46.652;21.272;2024-02-15T01:02:57;20.60;;;11.63;;
71513;SDS011;59335;46.652;21.272;2024-02-15T01:06:00;21.40;;;11.45;;
71513;SDS011;59335;46.652;21.272;2024-02-15T01:09:03;22.15;;;11.68;;
71513;SDS011;59335;46.652;21.272;2024-02-15T01:12:07;23.52;;;12.02;;
71513;SDS011;59335;46.652;21.272;2024-02-15T01:15:09;21.00;;;11.40;;
71513;SDS011;59335;46.652;21.272;2024-02-15T01:18:12;22.50;;;12.15;;
71513;SDS011;59335;46.652;21.272;2024-02-15T01:21:16;22.10;;;11.40;;
71513;SDS011;59335;46.652;21.272;2024-02-15T01:24:19;21.02;;;12.40;;
71513;SDS011;59335;46.652;21.272;2024-02-15T01:27:21;23.27;;;13.23;;
71513;SDS011;59335;46.652;21.272;2024-02-15T01:30:24;26.97;;;13.70;;
71513;SDS011;59335;46.652;21.272;2024-02-15T01:33:27;24.60;;;12.90;;
71513;SDS011;59335;46.652;21.272;2024-02-15T01:36:31;26.63;;;13.07;;
71513;SDS011;59335;46.652;21.272;2024-02-15T01:39:34;26.58;;;14.27;;
71513;SDS011;59335;46.652;21.272;2024-02-15T01:42:36;24.17;;;13.38;;
71513;SDS011;59335;46.652;21.272;2024-02-15T01:45:39;23.33;;;13.20;;
71513;SDS011;59335;46.652;21.272;2024-02-15T01:48:43;27.08;;;13.98;;
71513;SDS011;59335;46.652;21.272;2024-02-15T01:51:46;28.58;;;14.20;;
71513;SDS011;59335;46.652;21.272;2024-02-15T01:54:51;25.92;;;13.98;;
71513;SDS011;59335;46.652;21.272;2024-02-15T01:57:55;24.33;;;13.35;;
71513;SDS011;59335;46.652;21.272;2024-02-15T02:00:58;22.40;;;13.37;;
71513;SDS011;59335;46.652;21.272;2024-02-15T02:04:02;22.73;;;13.60;;
71513;SDS011;59335;46.652;21.272;2024-02-15T02:07:05;24.13;;;13.70;;
71513;SDS011;59335;46.652;21.272;2024-02-15T02:10:09;23.88;;;13.32;;
71513;SDS011;59335;46.652;21.272;2024-02-15T02:13:13;25.45;;;13.73;;
71513;SDS011;59335;46.652;21.272;2024-02-15T02:16:25;26.03;;;13.97;;
71513;SDS011;59335;46.652;21.272;2024-02-15T02:19:31;21.33;;;12.75;;
71513;SDS011;59335;46.652;21.272;2024-02-15T02:22:35;22.75;;;13.32;;
71513;SDS011;59335;46.652;21.272;2024-02-15T02:25:39;23.98;;;13.60;;
71513;SDS011;59335;46.652;21.272;2024-02-15T02:28:44;23.70;;;13.30;;
71513;SDS011;59335;46.652;21.272;2024-02-15T02:31:47;24.13;;;13.70;;
71513;SDS011;59335;46.652;21.272;2024-02-15T02:34:51;23.58;;;13.85;;
71513;SDS011;59335;46.652;21.272;2024-02-15T02:37:56;24.15;;;14.20;;
71513;SDS011;59335;46.652;21.272;2024-02-15T02:40:59;24.95;;;13.70;;
71513;SDS011;59335;46.652;21.272;2024-02-15T02:44:02;24.08;;;13.27;;
71513;SDS011;59335;46.652;21.272;2024-02-15T02:47:05;23.63;;;13.10;;
71513;SDS011;59335;46.652;21.272;2024-02-15T02:50:07;23.95;;;13.50;;
71513;SDS011;59335;46.652;21.272;2024-02-15T02:53:10;24.40;;;14.07;;
71513;SDS011;59335;46.652;21.272;2024-02-15T02:56:13;23.45;;;13.38;;
71513;SDS011;59335;46.652;21.272;2024-02-15T02:59:16;24.52;;;14.02;;
71513;SDS011;59335;46.652;21.272;2024-02-15T03:02:19;23.63;;;13.77;;
71513;SDS011;59335;46.652;21.272;2024-02-15T03:05:25;24.55;;;14.00;;
71513;SDS011;59335;46.652;21.272;2024-02-15T03:08:28;21.95;;;13.75;;
71513;SDS011;59335;46.652;21.272;2024-02-15T03:11:31;24.23;;;13.63;;
71513;SDS011;59335;46.652;21.272;2024-02-15T03:14:33;21.92;;;13.02;;
71513;SDS011;59335;46.652;21.272;2024-02-15T03:17:38;24.77;;;13.07;;
71513;SDS011;59335;46.652;21.272;2024-02-15T03:20:43;23.55;;;13.38;;
71513;SDS011;59335;46.652;21.272;2024-02-15T03:23:47;23.85;;;13.30;;
71513;SDS011;59335;46.652;21.272;2024-02-15T03:26:49;23.60;;;13.10;;
71513;SDS011;59335;46.652;21.272;2024-02-15T03:29:54;24.23;;;13.10;;
71513;SDS011;59335;46.652;21.272;2024-02-15T03:32:59;22.87;;;13.03;;
71513;SDS011;59335;46.652;21.272;2024-02-15T03:36:02;25.70;;;13.48;;
71513;SDS011;59335;46.652;21.272;2024-02-15T03:39:06;20.95;;;12.88;;
71513;SDS011;59335;46.652;21.272;2024-02-15T03:42:09;22.77;;;14.25;;
71513;SDS011;59335;46.652;21.272;2024-02-15T03:45:12;25.30;;;13.63;;
71513;SDS011;59335;46.652;21.272;2024-02-15T03:48:16;22.63;;;13.10;;
71513;SDS011;59335;46.652;21.272;2024-02-15T03:51:20;21.02;;;12.88;;
71513;SDS011;59335;46.652;21.272;2024-02-15T03:54:25;24.20;;;13.50;;
71513;SDS011;59335;46.652;21.272;2024-02-15T03:57:28;24.80;;;13.70;;
71513;SDS011;59335;46.652;21.272;2024-02-15T04:00:31;23.70;;;13.40;;
71513;SDS011;59335;46.652;21.272;2024-02-15T04:03:34;25.07;;;13.53;;
71513;SDS011;59335;46.652;21.272;2024-02-15T04:06:37;23.65;;;13.20;;
71513;SDS011;59335;46.652;21.272;2024-02-15T04:09:42;22.52;;;13.15;;
71513;SDS011;59335;46.652;21.272;2024-02-15T04:12:45;22.90;;;13.13;;
71513;SDS011;59335;46.652;21.272;2024-02-15T04:15:48;20.27;;;12.35;;
71513;SDS011;59335;46.652;21.272;2024-02-15T04:18:53;23.47;;;13.87;;
71513;SDS011;59335;46.652;21.272;2024-02-15T04:21:55;23.00;;;13.52;;
71513;SDS011;59335;46.652;21.272;2024-02-15T04:24:58;24.45;;;13.40;;
71513;SDS011;59335;46.652;21.272;2024-02-15T04:28:01;23.58;;;13.27;;
71513;SDS011;59335;46.652;21.272;2024-02-15T04:31:06;21.73;;;12.85;;
71513;SDS011;59335;46.652;21.272;2024-02-15T04:34:11;21.80;;;13.10;;
71513;SDS011;59335;46.652;21.272;2024-02-15T04:37:14;22.10;;;12.82;;
71513;SDS011;59335;46.652;21.272;2024-02-15T04:40:19;19.77;;;12.30;;
71513;SDS011;59335;46.652;21.272;2024-02-15T04:43:22;21.45;;;12.90;;
71513;SDS011;59335;46.652;21.272;2024-02-15T04:46:28;22.65;;;12.82;;
71513;SDS011;59335;46.652;21.272;2024-02-15T04:49:32;20.73;;;12.60;;
71513;SDS011;59335;46.652;21.272;2024-02-15T04:52:35;22.35;;;12.98;;
71513;SDS011;59335;46.652;21.272;2024-02-15T04:55:38;20.92;;;11.55;;
71513;SDS011;59335;46.652;21.272;2024-02-15T04:58:41;19.77;;;12.25;;
71513;SDS011;59335;46.652;21.272;2024-02-15T05:01:48;19.98;;;12.25;;
71513;SDS011;59335;46.652;21.272;2024-02-15T05:04:51;19.57;;;11.70;;
71513;SDS011;59335;46.652;21.272;2024-02-15T05:07:59;23.10;;;12.40;;
71513;SDS011;59335;46.652;21.272;2024-02-15T05:11:03;21.35;;;11.98;;
71513;SDS011;59335;46.652;21.272;2024-02-15T05:14:07;20.65;;;12.65;;
71513;SDS011;59335;46.652;21.272;2024-02-15T05:17:11;21.02;;;12.35;;
71513;SDS011;59335;46.652;21.272;2024-02-15T05:20:15;20.77;;;12.30;;
71513;SDS011;59335;46.652;21.272;2024-02-15T05:23:18;20.50;;;11.95;;
71513;SDS011;59335;46.652;21.272;2024-02-15T05:26:20;21.50;;;12.40;;
71513;SDS011;59335;46.652;21.272;2024-02-15T05:29:25;21.42;;;12.30;;
71513;SDS011;59335;46.652;21.272;2024-02-15T05:32:29;19.02;;;11.50;;
71513;SDS011;59335;46.652;21.272;2024-02-15T05:35:31;20.20;;;11.80;;
71513;SDS011;59335;46.652;21.272;2024-02-15T05:38:34;20.88;;;11.55;;
71513;SDS011;59335;46.652;21.272;2024-02-15T05:41:37;19.27;;;12.15;;
71513;SDS011;59335;46.652;21.272;2024-02-15T05:44:40;20.33;;;11.73;;
71513;SDS011;59335;46.652;21.272;2024-02-15T05:47:44;19.38;;;12.00;;
71513;SDS011;59335;46.652;21.272;2024-02-15T05:50:47;17.83;;;10.37;;
71513;SDS011;59335;46.652;21.272;2024-02-15T05:53:50;19.73;;;12.15;;
71513;SDS011;59335;46.652;21.272;2024-02-15T05:56:54;19.77;;;11.63;;
71513;SDS011;59335;46.652;21.272;2024-02-15T05:59:57;20.67;;;11.88;;
71513;SDS011;59335;46.652;21.272;2024-02-15T06:03:05;20.17;;;12.13;;
71513;SDS011;59335;46.652;21.272;2024-02-15T06:06:08;18.53;;;10.83;;
71513;SDS011;59335;46.652;21.272;2024-02-15T06:09:11;20.70;;;12.18;;
71513;SDS011;59335;46.652;21.272;2024-02-15T06:12:14;21.55;;;12.75;;
71513;SDS011;59335;46.652;21.272;2024-02-15T06:15:17;19.98;;;10.90;;
71513;SDS011;59335;46.652;21.272;2024-02-15T06:18:21;21.58;;;12.38;;
71513;SDS011;59335;46.652;21.272;2024-02-15T06:21:27;18.40;;;12.03;;
71513;SDS011;59335;46.652;21.272;2024-02-15T06:24:31;19.83;;;11.77;;
71513;SDS011;59335;46.652;21.272;2024-02-15T06:27:34;18.10;;;11.32;;
71513;SDS011;59335;46.652;21.272;2024-02-15T06:30:39;19.35;;;11.68;;
71513;SDS011;59335;46.652;21.272;2024-02-15T06:34:01;18.80;;;11.32;;
71513;SDS011;59335;46.652;21.272;2024-02-15T06:37:37;19.77;;;12.03;;
71513;SDS011;59335;46.652;21.272;2024-02-15T06:40:59;20.27;;;11.48;;
71513;SDS011;59335;46.652;21.272;2024-02-15T06:44:02;18.92;;;11.68;;
71513;SDS011;59335;46.652;21.272;2024-02-15T06:47:06;19.30;;;10.60;;
71513;SDS011;59335;46.652;21.272;2024-02-15T06:50:10;19.67;;;11.13;;
71513;SDS011;59335;46.652;21.272;2024-02-15T06:53:17;19.77;;;12.10;;
71513;SDS011;59335;46.652;21.272;2024-02-15T06:56:22;18.83;;;11.85;;
71513;SDS011;59335;46.652;21.272;2024-02-15T06:59:25;23.00;;;11.55;;
71513;SDS011;59335;46.652;21.272;2024-02-15T07:02:28;17.40;;;11.35;;
71513;SDS011;59335;46.652;21.272;2024-02-15T07:05:31;22.08;;;11.02;;
71513;SDS011;59335;46.652;21.272;2024-02-15T07:08:35;19.33;;;11.40;;
71513;SDS011;59335;46.652;21.272;2024-02-15T07:11:38;18.77;;;11.27;;
71513;SDS011;59335;46.652;21.272;2024-02-15T07:14:41;19.55;;;11.63;;
71513;SDS011;59335;46.652;21.272;2024-02-15T07:17:45;19.73;;;11.65;;
71513;SDS011;59335;46.652;21.272;2024-02-15T07:20:49;18.02;;;10.32;;
71513;SDS011;59335;46.652;21.272;2024-02-15T07:23:54;19.03;;;11.07;;
71513;SDS011;59335;46.652;21.272;2024-02-15T07:26:59;21.27;;;11.63;;
71513;SDS011;59335;46.652;21.272;2024-02-15T07:30:03;18.35;;;10.65;;
71513;SDS011;59335;46.652;21.272;2024-02-15T07:33:08;19.73;;;11.55;;
71513;SDS011;59335;46.652;21.272;2024-02-15T07:36:11;19.10;;;11.30;;
71513;SDS011;59335;46.652;21.272;2024-02-15T07:39:15;19.13;;;11.27;;
71513;SDS011;59335;46.652;21.272;2024-02-15T07:42:29;17.85;;;10.68;;
71513;SDS011;59335;46.652;21.272;2024-02-15T07:45:34;18.83;;;11.35;;
71513;SDS011;59335;46.652;21.272;2024-02-15T07:48:39;22.27;;;11.60;;
71513;SDS011;59335;46.652;21.272;2024-02-15T07:51:47;19.75;;;10.95;;
71513;SDS011;59335;46.652;21.272;2024-02-15T07:54:56;19.77;;;11.20;;
71513;SDS011;59335;46.652;21.272;2024-02-15T07:58:00;20.15;;;12.07;;
71513;SDS011;59335;46.652;21.272;2024-02-15T08:01:07;22.52;;;11.35;;
71513;SDS011;59335;46.652;21.272;2024-02-15T08:04:13;20.52;;;11.30;;
71513;SDS011;59335;46.652;21.272;2024-02-15T08:07:22;18.85;;;11.18;;
71513;SDS011;59335;46.652;21.272;2024-02-15T08:10:28;19.40;;;11.70;;
71513;SDS011;59335;46.652;21.272;2024-02-15T08:13:32;20.65;;;11.00;;
71513;SDS011;59335;46.652;21.272;2024-02-15T08:16:35;19.10;;;10.63;;
71513;SDS011;59335;46.652;21.272;2024-02-15T08:19:41;21.25;;;11.48;;
71513;SDS011;59335;46.652;21.272;2024-02-15T08:22:48;19.60;;;10.98;;
71513;SDS011;59335;46.652;21.272;2024-02-15T08:25:51;22.53;;;10.93;;
71513;SDS011;59335;46.652;21.272;2024-02-15T08:28:55;19.08;;;11.00;;
71513;SDS011;59335;46.652;21.272;2024-02-15T08:32:00;21.65;;;11.68;;
71513;SDS011;59335;46.652;21.272;2024-02-15T08:35:07;20.92;;;11.90;;
71513;SDS011;59335;46.652;21.272;2024-02-15T08:38:15;21.33;;;10.90;;
71513;SDS011;59335;46.652;21.272;2024-02-15T08:41:19;20.50;;;11.40;;
71513;SDS011;59335;46.652;21.272;2024-02-15T08:44:23;21.08;;;11.68;;
71513;SDS011;59335;46.652;21.272;2024-02-15T08:47:29;19.58;;;11.18;;
71513;SDS011;59335;46.652;21.272;2024-02-15T08:50:33;26.95;;;12.52;;
71513;SDS011;59335;46.652;21.272;2024-02-15T08:53:37;21.38;;;11.75;;
71513;SDS011;59335;46.652;21.272;2024-02-15T08:56:44;21.93;;;11.93;;
71513;SDS011;59335;46.652;21.272;2024-02-15T08:59:48;17.73;;;10.88;;
71513;SDS011;59335;46.652;21.272;2024-02-15T09:02:51;22.73;;;10.82;;
71513;SDS011;59335;46.652;21.272;2024-02-15T09:05:55;19.40;;;10.60;;
71513;SDS011;59335;46.652;21.272;2024-02-15T09:09:01;21.35;;;11.55;;
71513;SDS011;59335;46.652;21.272;2024-02-15T09:12:17;18.60;;;10.67;;
71513;SDS011;59335;46.652;21.272;2024-02-15T09:15:23;16.95;;;9.93;;
71513;SDS011;59335;46.652;21.272;2024-02-15T09:18:27;17.65;;;10.70;;
71513;SDS011;59335;46.652;21.272;2024-02-15T09:21:30;21.67;;;10.48;;
71513;SDS011;59335;46.652;21.272;2024-02-15T09:24:33;18.17;;;9.82;;
71513;SDS011;59335;46.652;21.272;2024-02-15T09:27:42;19.80;;;10.83;;
71513;SDS011;59335;46.652;21.272;2024-02-15T09:30:50;18.80;;;10.00;;
71513;SDS011;59335;46.652;21.272;2024-02-15T09:34:00;19.40;;;10.18;;
71513;SDS011;59335;46.652;21.272;2024-02-15T09:37:03;16.85;;;9.55;;
71513;SDS011;59335;46.652;21.272;2024-02-15T09:40:08;15.00;;;8.80;;
71513;SDS011;59335;46.652;21.272;2024-02-15T09:43:13;14.97;;;8.37;;
71513;SDS011;59335;46.652;21.272;2024-02-15T09:46:17;14.68;;;8.80;;
71513;SDS011;59335;46.652;21.272;2024-02-15T09:49:20;14.55;;;8.50;;
71513;SDS011;59335;46.652;21.272;2024-02-15T09:52:24;14.93;;;8.00;;
71513;SDS011;59335;46.652;21.272;2024-02-15T09:55:27;12.32;;;7.93;;
71513;SDS011;59335;46.652;21.272;2024-02-15T09:58:30;16.83;;;7.33;;
71513;SDS011;59335;46.652;21.272;2024-02-15T10:01:36;13.93;;;8.02;;
71513;SDS011;59335;46.652;21.272;2024-02-15T10:04:45;14.43;;;7.30;;
71513;SDS011;59335;46.652;21.272;2024-02-15T10:07:52;11.15;;;7.32;;
71513;SDS011;59335;46.652;21.272;2024-02-15T10:11:09;15.02;;;7.47;;
71513;SDS011;59335;46.652;21.272;2024-02-15T10:14:13;15.77;;;8.50;;
71513;SDS011;59335;46.652;21.272;2024-02-15T10:17:22;16.00;;;8.80;;
71513;SDS011;59335;46.652;21.272;2024-02-15T10:20:25;12.15;;;7.82;;
71513;SDS011;59335;46.652;21.272;2024-02-15T10:23:28;13.25;;;7.38;;
71513;SDS011;59335;46.652;21.272;2024-02-15T10:26:32;13.10;;;7.80;;
71513;SDS011;59335;46.652;21.272;2024-02-15T10:29:39;11.97;;;6.63;;
71513;SDS011;59335;46.652;21.272;2024-02-15T10:32:43;11.35;;;6.97;;
71513;SDS011;59335;46.652;21.272;2024-02-15T10:35:48;10.98;;;6.07;;
71513;SDS011;59335;46.652;21.272;2024-02-15T10:39:10;11.40;;;6.22;;
71513;SDS011;59335;46.652;21.272;2024-02-15T10:42:20;11.45;;;6.68;;
71513;SDS011;59335;46.652;21.272;2024-02-15T10:45:30;11.27;;;5.80;;
71513;SDS011;59335;46.652;21.272;2024-02-15T10:48:35;10.18;;;5.63;;
71513;SDS011;59335;46.652;21.272;2024-02-15T10:51:44;10.02;;;5.68;;
71513;SDS011;59335;46.652;21.272;2024-02-15T10:54:52;8.80;;;5.30;;
71513;SDS011;59335;46.652;21.272;2024-02-15T10:58:01;10.98;;;5.50;;
71513;SDS011;59335;46.652;21.272;2024-02-15T11:01:07;9.23;;;5.40;;
71513;SDS011;59335;46.652;21.272;2024-02-15T11:04:15;8.95;;;5.20;;
71513;SDS011;59335;46.652;21.272;2024-02-15T11:07:25;9.40;;;5.30;;
71513;SDS011;59335;46.652;21.272;2024-02-15T11:10:36;8.32;;;5.18;;
71513;SDS011;59335;46.652;21.272;2024-02-15T11:13:40;10.30;;;4.93;;
71513;SDS011;59335;46.652;21.272;2024-02-15T11:16:50;8.37;;;4.67;;
71513;SDS011;59335;46.652;21.272;2024-02-15T11:19:57;7.30;;;4.43;;
71513;SDS011;59335;46.652;21.272;2024-02-15T11:23:00;9.18;;;6.00;;
71513;SDS011;59335;46.652;21.272;2024-02-15T11:26:04;11.57;;;5.18;;
71513;SDS011;59335;46.652;21.272;2024-02-15T11:29:57;10.27;;;5.40;;
71513;SDS011;59335;46.652;21.272;2024-02-15T11:33:00;10.27;;;5.23;;
71513;SDS011;59335;46.652;21.272;2024-02-15T11:36:33;10.40;;;4.63;;
71513;SDS011;59335;46.652;21.272;2024-02-15T11:39:40;9.70;;;4.50;;
71513;SDS011;59335;46.652;21.272;2024-02-15T11:42:48;8.30;;;4.57;;
71513;SDS011;59335;46.652;21.272;2024-02-15T11:46:04;9.15;;;4.10;;
71513;SDS011;59335;46.652;21.272;2024-02-15T11:49:14;12.77;;;5.10;;
71513;SDS011;59335;46.652;21.272;2024-02-15T11:52:21;8.43;;;4.43;;
71513;SDS011;59335;46.652;21.272;2024-02-15T11:55:24;13.32;;;4.15;;
71513;SDS011;59335;46.652;21.272;2024-02-15T11:58:29;10.18;;;4.50;;
71513;SDS011;59335;46.652;21.272;2024-02-15T12:01:47;10.38;;;4.22;;
71513;SDS011;59335;46.652;21.272;2024-02-15T12:05:09;10.50;;;5.00;;
71513;SDS011;59335;46.652;21.272;2024-02-15T12:08:36;10.02;;;3.90;;
71513;SDS011;59335;46.652;21.272;2024-02-15T12:11:58;9.93;;;4.00;;
71513;SDS011;59335;46.652;21.272;2024-02-15T12:15:20;9.30;;;4.30;;
71513;SDS011;59335;46.652;21.272;2024-02-15T12:18:42;11.88;;;4.55;;
71513;SDS011;59335;46.652;21.272;2024-02-15T12:21:47;11.80;;;4.10;;
71513;SDS011;59335;46.652;21.272;2024-02-15T12:24:57;10.10;;;4.50;;
71513;SDS011;59335;46.652;21.272;2024-02-15T12:28:22;12.93;;;4.60;;
71513;SDS011;59335;46.652;21.272;2024-02-15T12:31:25;8.75;;;4.55;;
71513;SDS011;59335;46.652;21.272;2024-02-15T12:34:32;10.07;;;4.68;;
71513;SDS011;59335;46.652;21.272;2024-02-15T12:37:35;11.43;;;4.17;;
71513;SDS011;59335;46.652;21.272;2024-02-15T12:40:38;9.18;;;4.53;;
71513;SDS011;59335;46.652;21.272;2024-02-15T12:43:52;10.18;;;4.60;;
71513;SDS011;59335;46.652;21.272;2024-02-15T12:46:55;9.43;;;4.22;;
71513;SDS011;59335;46.652;21.272;2024-02-15T12:50:08;11.48;;;3.90;;
71513;SDS011;59335;46.652;21.272;2024-02-15T12:53:20;13.00;;;4.20;;
71513;SDS011;59335;46.652;21.272;2024-02-15T12:56:24;10.88;;;4.40;;
71513;SDS011;59335;46.652;21.272;2024-02-15T12:59:27;11.48;;;4.28;;
71513;SDS011;59335;46.652;21.272;2024-02-15T13:02:30;10.38;;;4.05;;
71513;SDS011;59335;46.652;21.272;2024-02-15T13:05:34;11.05;;;4.25;;
71513;SDS011;59335;46.652;21.272;2024-02-15T13:08:40;9.73;;;4.13;;
71513;SDS011;59335;46.652;21.272;2024-02-15T13:11:43;9.73;;;4.20;;
71513;SDS011;59335;46.652;21.272;2024-02-15T13:14:47;9.35;;;4.20;;
71513;SDS011;59335;46.652;21.272;2024-02-15T13:17:53;9.60;;;3.88;;
71513;SDS011;59335;46.652;21.272;2024-02-15T13:20:56;12.60;;;4.28;;
71513;SDS011;59335;46.652;21.272;2024-02-15T13:24:02;12.23;;;4.70;;
71513;SDS011;59335;46.652;21.272;2024-02-15T13:27:08;7.88;;;4.13;;
71513;SDS011;59335;46.652;21.272;2024-02-15T13:30:14;10.02;;;3.85;;
71513;SDS011;59335;46.652;21.272;2024-02-15T13:33:17;9.15;;;3.80;;
71513;SDS011;59335;46.652;21.272;2024-02-15T13:36:21;10.68;;;4.32;;
71513;SDS011;59335;46.652;21.272;2024-02-15T13:39:31;9.37;;;4.77;;
71513;SDS011;59335;46.652;21.272;2024-02-15T13:42:36;10.35;;;3.72;;
71513;SDS011;59335;46.652;21.272;2024-02-15T13:45:40;9.32;;;3.92;;
71513;SDS011;59335;46.652;21.272;2024-02-15T13:48:44;8.90;;;4.25;;
71513;SDS011;59335;46.652;21.272;2024-02-15T13:51:48;9.90;;;3.78;;
71513;SDS011;59335;46.652;21.272;2024-02-15T13:54:54;8.83;;;4.27;;
71513;SDS011;59335;46.652;21.272;2024-02-15T13:57:56;10.13;;;4.53;;
71513;SDS011;59335;46.652;21.272;2024-02-15T14:01:00;9.55;;;3.70;;
71513;SDS011;59335;46.652;21.272;2024-02-15T14:04:06;8.50;;;4.40;;
71513;SDS011;59335;46.652;21.272;2024-02-15T14:07:12;8.48;;;4.05;;
71513;SDS011;59335;46.652;21.272;2024-02-15T14:10:15;9.03;;;3.90;;
71513;SDS011;59335;46.652;21.272;2024-02-15T14:13:23;11.50;;;4.32;;
71513;SDS011;59335;46.652;21.272;2024-02-15T14:16:27;9.50;;;4.43;;
71513;SDS011;59335;46.652;21.272;2024-02-15T14:19:34;11.52;;;4.20;;
71513;SDS011;59335;46.652;21.272;2024-02-15T14:22:37;11.45;;;4.03;;
71513;SDS011;59335;46.652;21.272;2024-02-15T14:25:40;11.27;;;4.50;;
71513;SDS011;59335;46.652;21.272;2024-02-15T14:28:43;11.48;;;4.32;;
71513;SDS011;59335;46.652;21.272;2024-02-15T14:31:46;9.45;;;3.92;;
71513;SDS011;59335;46.652;21.272;2024-02-15T14:35:08;11.02;;;4.05;;
71513;SDS011;59335;46.652;21.272;2024-02-15T14:38:13;11.65;;;4.00;;
71513;SDS011;59335;46.652;21.272;2024-02-15T14:41:18;9.53;;;3.87;;
71513;SDS011;59335;46.652;21.272;2024-02-15T14:44:34;10.43;;;3.85;;
71513;SDS011;59335;46.652;21.272;2024-02-15T14:47:39;9.93;;;4.05;;
71513;SDS011;59335;46.652;21.272;2024-02-15T14:50:44;8.02;;;4.07;;
71513;SDS011;59335;46.652;21.272;2024-02-15T14:53:47;12.45;;;4.38;;
71513;SDS011;59335;46.652;21.272;2024-02-15T14:56:51;8.63;;;3.97;;
71513;SDS011;59335;46.652;21.272;2024-02-15T14:59:54;11.50;;;4.07;;
71513;SDS011;59335;46.652;21.272;2024-02-15T15:02:57;14.43;;;3.85;;
71513;SDS011;59335;46.652;21.272;2024-02-15T15:06:01;7.97;;;4.05;;
71513;SDS011;59335;46.652;21.272;2024-02-15T15:09:43;11.55;;;4.32;;
71513;SDS011;59335;46.652;21.272;2024-02-15T15:13:05;10.57;;;3.93;;
71513;SDS011;59335;46.652;21.272;2024-02-15T15:16:08;10.07;;;4.30;;
71513;SDS011;59335;46.652;21.272;2024-02-15T15:19:16;9.90;;;3.90;;
71513;SDS011;59335;46.652;21.272;2024-02-15T15:22:20;11.02;;;4.32;;
71513;SDS011;59335;46.652;21.272;2024-02-15T15:25:23;11.45;;;4.40;;
71513;SDS011;59335;46.652;21.272;2024-02-15T15:28:26;11.10;;;4.17;;
71513;SDS011;59335;46.652;21.272;2024-02-15T15:31:30;11.10;;;4.78;;
71513;SDS011;59335;46.652;21.272;2024-02-15T15:34:37;14.70;;;4.80;;
71513;SDS011;59335;46.652;21.272;2024-02-15T15:37:39;21.90;;;6.13;;
71513;SDS011;59335;46.652;21.272;2024-02-15T15:40:42;18.80;;;5.90;;
71513;SDS011;59335;46.652;21.272;2024-02-15T15:43:45;15.83;;;6.57;;
71513;SDS011;59335;46.652;21.272;2024-02-15T15:46:48;47.40;;;10.00;;
71513;SDS011;59335;46.652;21.272;2024-02-15T15:49:57;142.00;;;12.98;;
71513;SDS011;59335;46.652;21.272;2024-02-15T15:53:06;111.40;;;12.45;;
71513;SDS011;59335;46.652;21.272;2024-02-15T15:56:09;115.07;;;13.00;;
71513;SDS011;59335;46.652;21.272;2024-02-15T15:59:12;95.20;;;12.40;;
71513;SDS011;59335;46.652;21.272;2024-02-15T16:02:15;92.15;;;13.05;;
71513;SDS011;59335;46.652;21.272;2024-02-15T16:05:19;78.05;;;11.15;;
71513;SDS011;59335;46.652;21.272;2024-02-15T16:08:22;56.80;;;10.88;;
71513;SDS011;59335;46.652;21.272;2024-02-15T16:11:25;51.33;;;10.73;;
71513;SDS011;59335;46.652;21.272;2024-02-15T16:14:28;54.47;;;10.27;;
71513;SDS011;59335;46.652;21.272;2024-02-15T16:17:33;60.67;;;10.38;;
71513;SDS011;59335;46.652;21.272;2024-02-15T16:20:37;55.80;;;10.60;;
71513;SDS011;59335;46.652;21.272;2024-02-15T16:23:40;53.40;;;10.85;;
71513;SDS011;59335;46.652;21.272;2024-02-15T16:26:43;48.53;;;10.60;;
71513;SDS011;59335;46.652;21.272;2024-02-15T16:29:46;49.57;;;9.90;;
71513;SDS011;59335;46.652;21.272;2024-02-15T16:32:52;38.63;;;9.85;;
71513;SDS011;59335;46.652;21.272;2024-02-15T16:35:56;41.90;;;10.00;;
71513;SDS011;59335;46.652;21.272;2024-02-15T16:38:58;37.58;;;9.45;;
71513;SDS011;59335;46.652;21.272;2024-02-15T16:42:02;41.65;;;9.35;;
71513;SDS011;59335;46.652;21.272;2024-02-15T16:45:06;37.80;;;9.37;;
71513;SDS011;59335;46.652;21.272;2024-02-15T16:48:09;43.65;;;9.05;;
71513;SDS011;59335;46.652;21.272;2024-02-15T16:51:14;34.35;;;9.27;;
71513;SDS011;59335;46.652;21.272;2024-02-15T16:54:18;38.15;;;9.82;;
71513;SDS011;59335;46.652;21.272;2024-02-15T16:57:21;35.70;;;9.10;;
71513;SDS011;59335;46.652;21.272;2024-02-15T17:00:24;26.47;;;8.80;;
71513;SDS011;59335;46.652;21.272;2024-02-15T17:03:27;38.55;;;9.45;;
71513;SDS011;59335;46.652;21.272;2024-02-15T17:06:30;38.83;;;11.57;;
71513;SDS011;59335;46.652;21.272;2024-02-15T17:09:33;36.05;;;9.43;;
71513;SDS011;59335;46.652;21.272;2024-02-15T17:12:36;35.83;;;10.05;;
71513;SDS011;59335;46.652;21.272;2024-02-15T17:15:39;34.23;;;10.03;;
71513;SDS011;59335;46.652;21.272;2024-02-15T17:18:42;35.85;;;10.25;;
71513;SDS011;59335;46.652;21.272;2024-02-15T17:21:45;30.23;;;9.73;;
71513;SDS011;59335;46.652;21.272;2024-02-15T17:24:48;32.35;;;10.15;;
71513;SDS011;59335;46.652;21.272;2024-02-15T17:27:53;36.88;;;10.60;;
71513;SDS011;59335;46.652;21.272;2024-02-15T17:30:58;33.63;;;11.33;;
71513;SDS011;59335;46.652;21.272;2024-02-15T17:34:01;36.42;;;10.45;;
71513;SDS011;59335;46.652;21.272;2024-02-15T17:37:04;29.88;;;10.35;;
71513;SDS011;59335;46.652;21.272;2024-02-15T17:40:08;33.17;;;11.38;;
71513;SDS011;59335;46.652;21.272;2024-02-15T17:43:14;36.30;;;10.65;;
71513;SDS011;59335;46.652;21.272;2024-02-15T17:46:18;28.23;;;10.47;;
71513;SDS011;59335;46.652;21.272;2024-02-15T17:49:22;34.47;;;11.27;;
71513;SDS011;59335;46.652;21.272;2024-02-15T17:52:25;34.85;;;11.45;;
71513;SDS011;59335;46.652;21.272;2024-02-15T17:55:28;35.55;;;11.77;;
71513;SDS011;59335;46.652;21.272;2024-02-15T17:58:31;27.70;;;11.27;;